Time;durP1;ratioP1;P1;durP2;ratioP2;P2;SDS_P1;SDS_P2;PMS_P1;PMS_P2;Temp;Humidity;BMP_temperature;BMP_pressure;BME280_temperature;BME280_humidity;BME280_pressure;Samples;Min_cycle;Max_cycle;Signal;HPM_P1;HPM_P2
2023/03/31 00:01:32;;;;;;;1.98;1.30;;;17.50;57.80;;;;;;5051877;28;20186;-64
2023/03/31 00:04:03;;;;;;;2.53;1.38;;;17.50;57.80;;;;;;5051790;28;20186;-65
2023/03/31 00:06:36;;;;;;;2.63;1.38;;;17.40;57.80;;;;;;5051291;28;20172;-65
2023/03/31 00:09:07;;;;;;;2.97;1.50;;;17.50;57.80;;;;;;5051876;28;20183;-64
2023/03/31 00:11:32;;;;;;;3.47;1.70;;;17.50;57.90;;;;;;5051967;28;20596;-65
2023/03/31 00:13:58;;;;;;;2.17;1.25;;;17.40;57.80;;;;;;5050878;28;20217;-65
2023/03/31 00:16:23;;;;;;;2.05;1.30;;;17.40;57.80;;;;;;5051774;28;20175;-64
2023/03/31 00:18:50;;;;;;;1.80;1.13;;;17.40;57.80;;;;;;5050942;28;20206;-64
2023/03/31 00:21:24;;;;;;;1.92;1.30;;;17.40;57.80;;;;;;5051777;28;20666;-64
2023/03/31 00:23:52;;;;;;;2.38;1.42;;;17.40;57.80;;;;;;5051768;28;20171;-64
2023/03/31 00:26:18;;;;;;;2.35;0.90;;;17.40;57.80;;;;;;5051278;28;20175;-64
2023/03/31 00:28:44;;;;;;;3.05;1.40;;;17.40;57.80;;;;;;5051469;28;20179;-65
2023/03/31 00:31:09;;;;;;;3.13;1.40;;;17.40;57.80;;;;;;5051754;28;20186;-66
2023/03/31 00:33:35;;;;;;;3.30;2.03;;;17.40;57.80;;;;;;5050908;28;20183;-66
2023/03/31 00:36:04;;;;;;;3.67;1.42;;;17.40;57.80;;;;;;5051693;28;20179;-64
2023/03/31 00:38:30;;;;;;;3.55;1.67;;;17.40;57.80;;;;;;5051758;28;20215;-65
2023/03/31 00:40:56;;;;;;;3.50;1.63;;;17.30;57.70;;;;;;5050639;28;20178;-64
2023/03/31 00:43:29;;;;;;;3.00;1.55;;;17.30;57.70;;;;;;5051697;28;20198;-65
2023/03/31 00:46:00;;;;;;;2.00;1.27;;;17.30;57.70;;;;;;5051214;28;20254;-65
2023/03/31 00:48:26;;;;;;;3.20;1.50;;;17.30;57.80;;;;;;5050133;28;20183;-64
2023/03/31 00:50:53;;;;;;;2.65;1.60;;;17.30;57.80;;;;;;5051484;28;20175;-64
2023/03/31 00:53:21;;;;;;;2.17;1.20;;;17.30;57.80;;;;;;5050422;28;20175;-64
2023/03/31 00:55:49;;;;;;;2.45;1.10;;;17.30;57.70;;;;;;5049421;28;20187;-65
2023/03/31 00:58:18;;;;;;;3.15;1.42;;;17.30;57.70;;;;;;5050244;28;20230;-66
2023/03/31 01:00:47;;;;;;;1.98;1.45;;;17.30;57.70;;;;;;5049878;28;20191;-65
2023/03/31 01:03:13;;;;;;;2.25;1.60;;;17.30;57.80;;;;;;5052301;28;20175;-65
2023/03/31 01:05:46;;;;;;;4.10;1.23;;;17.30;57.70;;;;;;5053821;28;20258;-65
2023/03/31 01:08:12;;;;;;;2.30;1.10;;;17.30;57.70;;;;;;5053281;28;20527;-64
2023/03/31 01:10:44;;;;;;;2.67;1.20;;;17.30;57.70;;;;;;5053739;28;20178;-64
2023/03/31 01:13:10;;;;;;;2.10;1.30;;;17.30;57.70;;;;;;5053781;28;20206;-64
2023/03/31 01:15:36;;;;;;;1.95;1.25;;;17.30;57.70;;;;;;5054047;28;20619;-64
2023/03/31 01:18:02;;;;;;;2.80;1.40;;;17.20;57.70;;;;;;5054769;28;20639;-64
2023/03/31 01:20:50;;;;;;;3.67;1.48;;;17.30;57.70;;;;;;5053562;28;20638;-64
2023/03/31 01:23:34;;;;;;;2.80;1.42;;;17.20;57.70;;;;;;5052893;28;20187;-64
2023/03/31 01:26:27;;;;;;;3.28;1.45;;;17.20;57.70;;;;;;5054852;28;20178;-64
2023/03/31 01:28:59;;;;;;;3.28;1.48;;;17.20;57.70;;;;;;5054600;28;20222;-65
2023/03/31 01:31:30;;;;;;;1.52;1.35;;;17.20;57.70;;;;;;5054139;28;20579;-66
2023/03/31 01:34:18;;;;;;;2.50;1.25;;;17.20;57.70;;;;;;5054539;28;20230;-65
2023/03/31 01:37:13;;;;;;;2.30;1.27;;;17.20;57.70;;;;;;5052587;28;20187;-64
2023/03/31 01:39:57;;;;;;;2.70;1.40;;;17.20;57.70;;;;;;5054565;28;20574;-64
2023/03/31 01:42:52;;;;;;;1.75;1.33;;;17.20;57.70;;;;;;5054376;28;20181;-64
2023/03/31 01:45:52;;;;;;;3.15;1.25;;;17.20;57.70;;;;;;5052885;28;20171;-64
2023/03/31 01:48:46;;;;;;;2.33;1.35;;;17.20;57.70;;;;;;5054490;28;20175;-64
2023/03/31 01:51:32;;;;;;;3.72;1.42;;;17.20;57.70;;;;;;5052643;28;20182;-65
2023/03/31 01:54:13;;;;;;;1.55;1.30;;;17.20;57.70;;;;;;5052911;28;20254;-64
2023/03/31 01:56:43;;;;;;;1.42;1.25;;;17.20;57.70;;;;;;5054350;28;20182;-66
2023/03/31 01:59:50;;;;;;;1.48;1.13;;;17.20;57.70;;;;;;5052082;28;20306;-66
2023/03/31 02:02:21;;;;;;;3.10;1.30;;;17.20;58.30;;;;;;5054209;28;20225;-65
2023/03/31 02:04:53;;;;;;;2.28;1.23;;;17.20;57.70;;;;;;5051852;28;20221;-66
2023/03/31 02:07:21;;;;;;;1.63;1.00;;;17.10;57.70;;;;;;5052686;28;20257;-65
2023/03/31 02:09:54;;;;;;;1.83;0.98;;;17.10;57.60;;;;;;5052510;28;20309;-64
2023/03/31 02:12:20;;;;;;;2.47;1.48;;;17.10;57.60;;;;;;5052329;28;20183;-64
2023/03/31 02:14:46;;;;;;;2.00;1.20;;;17.10;57.60;;;;;;5051512;28;20171;-65
2023/03/31 02:17:16;;;;;;;1.93;1.47;;;17.10;57.60;;;;;;5052607;28;20258;-65
2023/03/31 02:19:43;;;;;;;2.33;1.23;;;17.10;57.60;;;;;;5051617;28;20191;-64
2023/03/31 02:22:08;;;;;;;3.28;1.42;;;17.10;57.70;;;;;;5053591;28;20292;-63
2023/03/31 02:24:35;;;;;;;3.08;1.50;;;17.10;57.70;;;;;;5052361;28;20653;-65
2023/03/31 02:27:20;;;;;;;2.42;1.48;;;17.10;57.70;;;;;;5052915;28;20181;-64
2023/03/31 02:29:45;;;;;;;2.35;1.30;;;17.10;57.70;;;;;;5052213;28;20178;-65
2023/03/31 02:32:14;;;;;;;2.75;1.10;;;17.10;57.70;;;;;;5053388;28;20190;-66
2023/03/31 02:34:40;;;;;;;3.03;1.30;;;17.10;57.70;;;;;;5052746;28;20182;-65
2023/03/31 02:37:06;;;;;;;1.15;1.02;;;17.10;57.70;;;;;;5051501;28;20179;-65
2023/03/31 02:39:33;;;;;;;2.08;1.23;;;17.10;57.70;;;;;;5051251;28;20187;-65
2023/03/31 02:42:05;;;;;;;1.25;0.95;;;17.10;57.70;;;;;;5052979;28;20646;-64
2023/03/31 02:44:34;;;;;;;1.25;1.10;;;17.00;57.60;;;;;;5052137;28;20185;-65
2023/03/31 02:47:01;;;;;;;2.33;1.20;;;17.10;57.70;;;;;;5051084;28;20182;-65
2023/03/31 02:49:26;;;;;;;2.05;1.00;;;17.00;57.60;;;;;;5052244;28;20266;-65
2023/03/31 02:52:10;;;;;;;2.47;1.20;;;17.00;57.60;;;;;;5053133;28;20203;-65
2023/03/31 02:54:46;;;;;;;2.67;1.27;;;17.00;57.60;;;;;;5052591;28;20174;-65
2023/03/31 02:57:31;;;;;;;2.50;1.10;;;17.00;57.60;;;;;;5051844;28;20187;-66
2023/03/31 03:00:15;;;;;;;2.22;1.20;;;17.00;57.60;;;;;;5052663;28;20209;-65
2023/03/31 03:03:11;;;;;;;3.08;1.13;;;17.00;57.60;;;;;;5052383;28;20198;-65
2023/03/31 03:05:53;;;;;;;3.00;1.63;;;17.00;57.70;;;;;;5052983;28;20175;-65
2023/03/31 03:08:27;;;;;;;3.92;1.42;;;17.00;57.60;;;;;;5051287;28;20175;-64
2023/03/31 03:11:16;;;;;;;3.28;1.25;;;17.00;57.60;;;;;;5052739;28;20179;-64
2023/03/31 03:13:48;;;;;;;3.42;1.30;;;17.00;57.60;;;;;;5052559;28;20225;-64
2023/03/31 03:16:35;;;;;;;1.77;1.10;;;17.00;57.70;;;;;;5050808;28;20179;-64
2023/03/31 03:19:03;;;;;;;2.33;1.20;;;17.00;57.70;;;;;;5034890;28;20218;-63
2023/03/31 03:21:28;;;;;;;1.27;1.17;;;17.00;57.60;;;;;;5051135;28;20226;-64
2023/03/31 03:23:54;;;;;;;1.55;1.30;;;17.00;57.60;;;;;;5051765;28;20179;-64
2023/03/31 03:26:20;;;;;;;0.93;0.82;;;17.00;57.70;;;;;;5052469;28;20178;-65
2023/03/31 03:28:46;;;;;;;2.40;1.05;;;17.00;57.60;;;;;;5051642;28;20179;-65
2023/03/31 03:31:12;;;;;;;2.35;1.23;;;17.00;57.70;;;;;;5052846;28;20256;-65
2023/03/31 03:33:38;;;;;;;1.38;1.00;;;16.90;57.70;;;;;;5052543;28;20198;-65
2023/03/31 03:36:07;;;;;;;2.58;1.33;;;16.90;57.60;;;;;;5051523;28;20183;-64
2023/03/31 03:38:32;;;;;;;1.60;1.08;;;16.90;57.60;;;;;;5052456;28;20300;-64
2023/03/31 03:40:58;;;;;;;2.30;1.23;;;16.90;57.60;;;;;;5052307;28;20580;-64
2023/03/31 03:43:23;;;;;;;2.05;1.13;;;16.90;58.30;;;;;;5051665;28;20711;-64
2023/03/31 03:45:49;;;;;;;1.33;1.10;;;16.90;57.60;;;;;;5051732;28;20336;-64
2023/03/31 03:48:17;;;;;;;1.77;1.42;;;16.90;57.60;;;;;;5052249;28;20584;-64
2023/03/31 03:50:46;;;;;;;1.88;1.20;;;16.90;57.70;;;;;;5051493;28;20179;-65
2023/03/31 03:53:12;;;;;;;3.65;1.42;;;16.90;57.70;;;;;;5052262;28;20175;-64
2023/03/31 03:55:38;;;;;;;2.80;1.50;;;16.90;57.70;;;;;;5052212;28;20175;-64
2023/03/31 03:58:03;;;;;;;1.58;0.93;;;16.90;57.60;;;;;;5051069;28;20206;-65
2023/03/31 04:00:29;;;;;;;3.80;1.23;;;16.90;57.70;;;;;;5052334;28;20180;-65
2023/03/31 04:02:54;;;;;;;3.35;1.27;;;16.90;57.70;;;;;;5051872;28;20278;-65
2023/03/31 04:05:20;;;;;;;1.55;1.20;;;16.90;57.70;;;;;;5051593;28;20175;-65
2023/03/31 04:07:45;;;;;;;1.83;1.20;;;16.90;57.70;;;;;;5051848;28;20171;-64
2023/03/31 04:10:11;;;;;;;2.92;1.30;;;16.90;57.70;;;;;;5052095;28;20463;-64
2023/03/31 04:12:36;;;;;;;2.03;1.15;;;16.90;57.70;;;;;;5051308;28;20203;-64
2023/03/31 04:15:03;;;;;;;3.05;1.17;;;16.90;57.70;;;;;;5052004;28;20187;-64
2023/03/31 04:17:33;;;;;;;2.55;1.13;;;16.90;57.70;;;;;;5052262;28;20175;-64
2023/03/31 04:20:10;;;;;;;2.15;1.00;;;16.90;57.70;;;;;;5051188;28;20186;-64
2023/03/31 04:22:39;;;;;;;2.05;1.00;;;16.80;57.60;;;;;;5051878;28;20232;-64
2023/03/31 04:25:13;;;;;;;2.42;0.90;;;16.90;57.70;;;;;;5051145;28;20235;-64
2023/03/31 04:27:45;;;;;;;3.13;1.65;;;16.90;57.70;;;;;;5052187;28;20178;-65
2023/03/31 04:30:12;;;;;;;2.10;1.25;;;16.90;57.70;;;;;;5052228;28;20171;-65
2023/03/31 04:32:37;;;;;;;2.17;1.23;;;16.90;57.70;;;;;;5051242;28;20190;-66
2023/03/31 04:35:05;;;;;;;2.22;1.13;;;16.90;57.70;;;;;;5051430;28;20237;-65
2023/03/31 04:37:34;;;;;;;2.92;1.05;;;16.80;57.70;;;;;;5053406;28;20221;-64
2023/03/31 04:40:07;;;;;;;1.63;0.93;;;16.80;57.70;;;;;;5054888;28;20197;-64
2023/03/31 04:42:32;;;;;;;1.48;1.08;;;16.80;57.70;;;;;;5055663;28;20199;-64
2023/03/31 04:44:58;;;;;;;2.42;0.80;;;16.80;57.70;;;;;;5055375;28;20225;-64
2023/03/31 04:47:23;;;;;;;2.63;1.17;;;16.80;57.60;;;;;;5054844;28;20198;-64
2023/03/31 04:49:49;;;;;;;2.58;1.10;;;16.80;57.60;;;;;;5055120;28;20206;-64
2023/03/31 04:52:15;;;;;;;2.80;1.17;;;16.80;57.70;;;;;;5055800;28;20186;-64
2023/03/31 04:54:40;;;;;;;2.95;1.40;;;16.80;57.70;;;;;;5055015;28;20247;-64
2023/03/31 04:57:06;;;;;;;2.28;1.10;;;16.80;57.70;;;;;;5055215;28;20233;-65
2023/03/31 04:59:31;;;;;;;3.25;1.25;;;16.80;57.70;;;;;;5055457;28;20583;-65
2023/03/31 05:01:57;;;;;;;2.50;1.33;;;16.80;57.60;;;;;;5054313;28;20579;-65
2023/03/31 05:04:22;;;;;;;1.35;0.80;;;16.80;57.70;;;;;;5055055;28;20179;-65
2023/03/31 05:06:48;;;;;;;2.67;1.25;;;16.80;57.70;;;;;;5055018;28;20175;-64
2023/03/31 05:09:16;;;;;;;2.50;1.05;;;16.80;57.70;;;;;;5054642;28;20185;-64
2023/03/31 05:11:41;;;;;;;2.08;1.30;;;16.80;57.70;;;;;;5054927;28;20262;-64
2023/03/31 05:14:07;;;;;;;1.58;1.10;;;16.80;57.70;;;;;;5055138;28;20263;-64
2023/03/31 05:16:33;;;;;;;2.90;1.50;;;16.70;57.60;;;;;;5054252;28;20571;-64
2023/03/31 05:18:58;;;;;;;2.60;1.38;;;16.80;57.70;;;;;;5054558;28;20245;-64
2023/03/31 05:21:25;;;;;;;1.10;0.80;;;16.80;57.60;;;;;;5053877;28;20223;-63
2023/03/31 05:23:51;;;;;;;1.35;0.93;;;16.70;57.70;;;;;;5054701;28;20564;-64
2023/03/31 05:26:16;;;;;;;2.22;0.95;;;16.80;57.70;;;;;;5054800;28;20195;-64
2023/03/31 05:28:45;;;;;;;2.53;1.20;;;16.80;57.70;;;;;;5054051;28;20190;-65
2023/03/31 05:31:11;;;;;;;2.65;1.13;;;16.70;57.60;;;;;;5054807;28;20270;-65
2023/03/31 05:33:40;;;;;;;2.92;1.30;;;16.70;57.60;;;;;;5054557;28;20289;-65
2023/03/31 05:36:10;;;;;;;1.55;1.08;;;16.70;57.60;;;;;;5053611;28;20537;-64
2023/03/31 05:38:35;;;;;;;1.58;0.90;;;16.80;57.70;;;;;;5054315;28;20207;-64
2023/03/31 05:41:01;;;;;;;2.13;1.05;;;16.70;57.60;;;;;;5054208;28;20221;-63
2023/03/31 05:43:26;;;;;;;2.60;1.23;;;16.70;57.70;;;;;;5053907;28;20642;-64
2023/03/31 05:45:52;;;;;;;2.05;0.90;;;16.70;57.60;;;;;;5054103;28;20604;-64
2023/03/31 05:48:17;;;;;;;1.85;1.17;;;16.70;57.70;;;;;;5053317;28;20183;-64
2023/03/31 05:50:43;;;;;;;1.70;1.15;;;16.70;57.60;;;;;;5053008;28;20172;-64
2023/03/31 05:53:09;;;;;;;2.17;1.00;;;16.70;57.70;;;;;;5054216;28;20218;-63
2023/03/31 05:55:35;;;;;;;1.27;0.90;;;16.70;57.70;;;;;;5053749;28;20187;-64
2023/03/31 05:58:00;;;;;;;1.95;1.13;;;16.70;57.60;;;;;;5053148;28;20333;-64
2023/03/31 06:00:26;;;;;;;1.50;0.90;;;16.70;57.60;;;;;;5054172;28;20206;-64
2023/03/31 06:02:51;;;;;;;1.67;1.10;;;16.70;57.60;;;;;;5053851;28;20178;-64
2023/03/31 06:05:17;;;;;;;1.92;1.08;;;16.70;57.70;;;;;;5053598;28;20182;-63
2023/03/31 06:07:42;;;;;;;2.08;1.23;;;16.70;57.60;;;;;;5053934;28;20175;-64
2023/03/31 06:10:09;;;;;;;3.53;1.05;;;16.70;57.60;;;;;;5054252;28;20167;-64
2023/03/31 06:12:35;;;;;;;3.53;1.10;;;16.70;57.60;;;;;;5053303;28;20617;-65
2023/03/31 06:15:01;;;;;;;2.83;1.17;;;16.80;57.70;;;;;;5053617;28;20186;-64
2023/03/31 06:17:26;;;;;;;2.72;1.08;;;16.80;57.60;;;;;;5053620;28;20175;-63
2023/03/31 06:19:52;;;;;;;1.85;0.93;;;16.70;57.60;;;;;;5052963;28;20188;-62
2023/03/31 06:22:17;;;;;;;1.95;1.10;;;16.80;57.70;;;;;;5053644;28;20237;-62
2023/03/31 06:24:43;;;;;;;2.58;1.00;;;16.70;57.60;;;;;;5052729;28;20190;-63
2023/03/31 06:27:09;;;;;;;2.78;1.30;;;16.70;57.60;;;;;;5053620;28;20172;-63
2023/03/31 06:29:34;;;;;;;2.38;1.15;;;16.70;57.60;;;;;;5053586;28;20172;-64
2023/03/31 06:32:00;;;;;;;1.15;0.95;;;16.70;57.70;;;;;;5052471;28;20171;-64
2023/03/31 06:34:25;;;;;;;1.52;0.80;;;16.70;57.70;;;;;;5053593;28;20229;-64
2023/03/31 06:36:52;;;;;;;1.50;0.98;;;16.70;57.70;;;;;;5052935;28;20179;-63
2023/03/31 06:39:17;;;;;;;1.05;0.85;;;16.70;57.70;;;;;;5052574;28;20226;-63
2023/03/31 06:41:43;;;;;;;1.75;1.02;;;16.70;57.70;;;;;;5053110;28;20581;-64
2023/03/31 06:44:09;;;;;;;1.02;0.80;;;16.70;57.70;;;;;;5053274;28;20180;-63
2023/03/31 06:46:34;;;;;;;2.28;1.15;;;16.70;57.90;;;;;;5052455;28;20174;-64
2023/03/31 06:49:00;;;;;;;3.67;1.20;;;16.70;57.70;;;;;;5053112;28;20183;-64
2023/03/31 06:51:25;;;;;;;2.42;1.17;;;16.70;57.70;;;;;;5053254;28;20171;-64
2023/03/31 06:53:51;;;;;;;2.92;1.40;;;16.70;57.60;;;;;;5052199;28;20257;-64
2023/03/31 06:56:16;;;;;;;2.05;1.00;;;16.70;57.70;;;;;;5053166;28;20171;-64
2023/03/31 06:58:42;;;;;;;2.20;1.38;;;16.70;57.70;;;;;;5052745;28;20211;-65
2023/03/31 07:01:09;;;;;;;2.50;1.02;;;16.70;57.70;;;;;;5051736;28;20183;-65
2023/03/31 07:03:35;;;;;;;1.83;1.23;;;16.70;57.70;;;;;;5053014;28;20175;-65
2023/03/31 07:06:00;;;;;;;1.90;1.13;;;16.70;57.70;;;;;;5052786;28;20661;-64
2023/03/31 07:08:26;;;;;;;1.00;0.90;;;16.70;57.70;;;;;;5052188;28;20636;-63
2023/03/31 07:10:56;;;;;;;1.70;1.00;;;16.70;57.70;;;;;;5052702;28;20193;-65
2023/03/31 07:13:22;;;;;;;1.20;0.90;;;16.70;57.70;;;;;;5052790;28;20186;-65
2023/03/31 07:15:48;;;;;;;1.33;0.93;;;16.70;57.70;;;;;;5051645;28;20171;-64
2023/03/31 07:18:14;;;;;;;2.50;1.20;;;16.80;57.70;;;;;;5052710;28;20302;-64
2023/03/31 07:20:41;;;;;;;1.40;1.10;;;16.70;57.60;;;;;;5052617;28;20218;-65
2023/03/31 07:23:07;;;;;;;1.80;1.33;;;16.70;57.70;;;;;;5051693;28;20637;-64
2023/03/31 07:25:33;;;;;;;2.80;1.17;;;16.70;57.70;;;;;;5052465;28;20261;-65
2023/03/31 07:27:58;;;;;;;1.85;0.93;;;16.70;57.70;;;;;;5051458;28;20710;-64
2023/03/31 07:30:24;;;;;;;2.33;1.20;;;16.70;57.80;;;;;;5052531;28;20170;-65
2023/03/31 07:32:50;;;;;;;2.97;1.10;;;16.70;57.80;;;;;;5052536;28;20167;-64
2023/03/31 07:35:16;;;;;;;2.60;1.40;;;16.70;57.80;;;;;;5051936;28;20182;-64
2023/03/31 07:37:43;;;;;;;1.85;1.10;;;16.70;57.80;;;;;;5052329;28;20229;-64
2023/03/31 07:40:10;;;;;;;1.98;1.17;;;16.70;57.80;;;;;;5052474;28;20191;-63
2023/03/31 07:42:36;;;;;;;1.83;1.15;;;16.70;57.80;;;;;;5051633;28;20179;-64
2023/03/31 07:45:02;;;;;;;2.45;1.13;;;16.70;57.90;;;;;;5052294;28;20278;-63
2023/03/31 07:47:27;;;;;;;1.65;0.82;;;16.70;57.80;;;;;;5052372;28;20190;-64
2023/03/31 07:49:53;;;;;;;2.30;1.05;;;16.70;57.80;;;;;;5051421;28;20258;-64
2023/03/31 07:52:18;;;;;;;2.25;1.08;;;16.70;57.80;;;;;;5052149;28;20171;-63
2023/03/31 07:54:45;;;;;;;2.28;1.20;;;16.70;57.90;;;;;;5052178;28;20622;-65
2023/03/31 07:57:15;;;;;;;2.13;0.82;;;16.60;57.80;;;;;;5051537;28;20266;-64
2023/03/31 07:59:41;;;;;;;1.88;1.15;;;16.60;57.80;;;;;;5051987;28;20221;-64
2023/03/31 08:02:06;;;;;;;1.88;0.90;;;16.70;57.90;;;;;;5052091;28;20171;-67
2023/03/31 08:04:32;;;;;;;2.40;1.10;;;16.60;57.80;;;;;;5051482;28;20533;-64
2023/03/31 08:06:57;;;;;;;1.42;0.95;;;16.60;57.80;;;;;;5051804;28;20175;-63
2023/03/31 08:09:23;;;;;;;3.85;1.20;;;16.60;57.80;;;;;;5052056;28;20254;-67
2023/03/31 08:11:48;;;;;;;2.25;0.88;;;16.70;58.10;;;;;;5051501;28;20646;-61
2023/03/31 08:14:14;;;;;;;2.67;0.90;;;16.70;58.20;;;;;;5056041;28;20267;-62
2023/03/31 08:16:40;;;;;;;3.53;1.10;;;16.70;58.00;;;;;;5056439;28;20266;-62
2023/03/31 08:19:05;;;;;;;2.30;1.00;;;16.80;58.00;;;;;;5055177;28;20203;-63
2023/03/31 08:21:31;;;;;;;2.65;1.15;;;16.80;58.50;;;;;;5055758;28;20267;-62
2023/03/31 08:23:56;;;;;;;0.98;0.82;;;16.80;58.10;;;;;;5055705;28;20254;-62
2023/03/31 08:26:24;;;;;;;3.53;1.25;;;16.70;58.10;;;;;;5055197;28;20173;-63
2023/03/31 08:28:49;;;;;;;1.50;0.90;;;16.70;58.10;;;;;;5055815;28;20279;-64
2023/03/31 08:31:16;;;;;;;2.60;1.10;;;16.70;58.20;;;;;;5055247;28;20204;-64
2023/03/31 08:33:41;;;;;;;2.47;1.25;;;16.70;58.20;;;;;;5055619;28;20179;-64
2023/03/31 08:36:09;;;;;;;1.77;1.10;;;16.70;58.20;;;;;;5055813;28;20179;-63
2023/03/31 08:38:40;;;;;;;3.33;1.02;;;16.70;58.20;;;;;;5054785;28;20211;-63
2023/03/31 08:41:07;;;;;;;5.30;1.15;;;16.70;58.20;;;;;;5055277;28;20175;-63
2023/03/31 08:43:36;;;;;;;3.17;1.08;;;16.70;58.20;;;;;;5054480;28;20258;-63
2023/03/31 08:46:01;;;;;;;2.38;1.08;;;16.70;58.10;;;;;;5053125;28;20364;-63
2023/03/31 08:48:43;;;;;;;1.95;1.00;;;16.70;58.10;;;;;;5037769;28;20203;-63
2023/03/31 08:51:32;;;;;;;1.08;0.90;;;16.70;58.10;;;;;;5054250;28;20171;-64
2023/03/31 08:54:06;;;;;;;1.42;0.88;;;16.70;58.80;;;;;;5053034;28;20630;-64
2023/03/31 08:56:38;;;;;;;1.60;0.95;;;16.70;58.10;;;;;;5054467;28;20511;-64
2023/03/31 08:59:03;;;;;;;2.15;1.00;;;16.70;58.00;;;;;;5037421;28;20215;-64
2023/03/31 09:01:35;;;;;;;2.00;0.90;;;16.70;58.00;;;;;;5053328;28;20174;-64
2023/03/31 09:04:07;;;;;;;1.60;1.10;;;16.70;58.00;;;;;;5053626;28;20273;-68
2023/03/31 09:06:40;;;;;;;2.22;1.17;;;16.80;58.30;;;;;;5054619;28;20186;-66
2023/03/31 09:09:09;;;;;;;2.05;1.05;;;16.70;58.50;;;;;;5053528;28;20262;-66
2023/03/31 09:11:46;;;;;;;5.00;1.42;;;16.80;58.50;;;;;;5055075;28;20179;-68
2023/03/31 09:14:37;;;;;;;4.00;0.90;;;16.80;58.30;;;;;;5053129;28;20182;-66
2023/03/31 09:17:25;;;;;;;3.92;1.00;;;16.80;58.40;;;;;;5053762;28;20274;-66
2023/03/31 09:19:57;;;;;;;4.30;1.23;;;16.80;58.40;;;;;;5053468;28;20195;-67
2023/03/31 09:22:33;;;;;;;2.58;1.08;;;16.80;58.30;;;;;;5053860;28;20334;-63
2023/03/31 09:25:32;;;;;;;5.50;1.33;;;16.90;58.50;;;;;;5037228;28;20221;-67
2023/03/31 09:27:58;;;;;;;3.80;1.38;;;16.90;58.70;;;;;;5052422;28;20257;-68
2023/03/31 09:30:25;;;;;;;3.42;1.27;;;16.90;58.80;;;;;;5053429;28;20214;-69
2023/03/31 09:33:30;;;;;;;4.10;1.13;;;16.90;59.10;;;;;;5053242;28;20529;-69
2023/03/31 09:35:59;;;;;;;5.00;1.38;;;16.90;58.90;;;;;;5053008;28;20194;-63
2023/03/31 09:38:28;;;;;;;4.15;1.20;;;16.90;58.80;;;;;;5054616;28;20290;-67
2023/03/31 09:40:57;;;;;;;3.10;1.50;;;17.00;59.10;;;;;;5053122;28;20171;-62
2023/03/31 09:43:25;;;;;;;5.00;1.70;;;17.00;59.20;;;;;;5052805;28;20183;-64
2023/03/31 09:45:51;;;;;;;3.72;1.38;;;17.00;58.80;;;;;;5036939;28;20193;-63
2023/03/31 09:48:22;;;;;;;3.42;1.75;;;17.00;58.60;;;;;;5054691;28;20171;-63
2023/03/31 09:50:50;;;;;;;5.13;1.50;;;17.00;58.40;;;;;;5053536;28;20183;-63
2023/03/31 09:53:50;;;;;;;2.55;1.23;;;17.10;58.60;;;;;;5053115;28;20638;-62
2023/03/31 09:56:44;;;;;;;3.47;1.10;;;17.10;58.60;;;;;;5053697;28;20179;-63
2023/03/31 09:59:18;;;;;;;4.38;1.80;;;17.10;58.90;;;;;;5054449;28;20221;-63
2023/03/31 10:01:51;;;;;;;5.63;1.23;;;17.10;58.80;;;;;;5054018;28;20258;-63
2023/03/31 10:04:22;;;;;;;3.35;1.40;;;17.10;59.00;;;;;;5053388;28;20481;-63
2023/03/31 10:06:47;;;;;;;3.13;1.13;;;17.10;59.20;;;;;;5054142;28;20210;-69
2023/03/31 10:09:13;;;;;;;2.63;0.95;;;17.10;59.00;;;;;;5054417;28;20195;-67
2023/03/31 10:11:39;;;;;;;2.97;1.50;;;17.10;59.10;;;;;;5035783;28;20691;-66
2023/03/31 10:14:12;;;;;;;3.63;1.60;;;17.10;59.10;;;;;;5035921;28;20181;-64
2023/03/31 10:16:54;;;;;;;3.03;1.30;;;17.10;59.30;;;;;;5052172;28;20183;-64
2023/03/31 10:19:27;;;;;;;5.25;1.58;;;17.00;59.60;;;;;;5053865;28;20222;-62
2023/03/31 10:21:58;;;;;;;9.20;2.10;;;17.00;59.60;;;;;;5053353;28;20694;-62
2023/03/31 10:24:23;;;;;;;4.60;1.73;;;17.00;59.50;;;;;;5053104;28;20183;-62
2023/03/31 10:26:52;;;;;;;5.03;1.92;;;17.00;59.80;;;;;;5053114;28;20171;-63
2023/03/31 10:29:28;;;;;;;4.15;1.40;;;17.00;59.60;;;;;;5053744;28;20175;-65
2023/03/31 10:31:54;;;;;;;4.72;1.40;;;17.00;59.90;;;;;;5053165;28;20174;-64
2023/03/31 10:34:20;;;;;;;4.97;1.80;;;17.00;60.10;;;;;;5051930;28;20182;-65
2023/03/31 10:36:47;;;;;;;5.28;1.65;;;17.00;59.90;;;;;;5051953;28;20202;-64
2023/03/31 10:39:14;;;;;;;2.50;1.23;;;17.00;60.00;;;;;;5051472;28;20616;-63
2023/03/31 10:41:40;;;;;;;3.72;1.40;;;17.00;59.70;;;;;;5053413;28;20237;-64
2023/03/31 10:44:06;;;;;;;1.92;1.35;;;17.00;59.60;;;;;;5053040;28;20171;-64
2023/03/31 10:46:41;;;;;;;8.38;1.75;;;17.00;59.50;;;;;;5052597;28;20645;-64
2023/03/31 10:49:34;;;;;;;3.75;1.52;;;17.10;59.60;;;;;;5053323;28;20182;-63
2023/03/31 10:52:00;;;;;;;3.63;1.27;;;17.10;59.60;;;;;;5046994;28;20183;-63
2023/03/31 10:54:25;;;;;;;3.35;1.67;;;17.10;59.50;;;;;;5053000;28;20220;-62
2023/03/31 10:56:53;;;;;;;5.47;2.03;;;17.20;59.60;;;;;;5052796;28;20646;-63
2023/03/31 10:59:28;;;;;;;5.70;1.70;;;17.20;59.60;;;;;;5050925;28;20215;-62
2023/03/31 11:02:00;;;;;;;4.55;1.65;;;17.20;59.80;;;;;;5051941;28;20598;-62
2023/03/31 11:04:46;;;;;;;5.50;1.88;;;17.30;59.70;;;;;;5051173;28;20270;-61
2023/03/31 11:07:15;;;;;;;7.38;1.52;;;17.30;59.60;;;;;;5051322;28;20228;-61
2023/03/31 11:09:51;;;;;;;3.13;1.30;;;17.30;59.60;;;;;;5051351;28;20178;-61
2023/03/31 11:12:26;;;;;;;4.57;1.55;;;17.30;59.60;;;;;;5052326;28;20261;-60
2023/03/31 11:15:34;;;;;;;5.38;1.65;;;17.40;59.60;;;;;;5050099;28;20185;-62
2023/03/31 11:18:36;;;;;;;2.60;1.55;;;17.40;59.60;;;;;;5031828;28;20282;-62
2023/03/31 11:21:23;;;;;;;4.25;1.40;;;17.40;59.50;;;;;;5049078;28;20245;-62
2023/03/31 11:23:55;;;;;;;2.53;1.65;;;17.30;59.40;;;;;;5050917;28;20218;-62
2023/03/31 11:26:28;;;;;;;8.18;1.70;;;17.30;59.40;;;;;;5051428;28;20539;-62
2023/03/31 11:29:21;;;;;;;4.25;1.88;;;17.30;59.40;;;;;;5050316;28;20171;-64
2023/03/31 11:32:24;;;;;;;5.03;1.88;;;17.20;59.30;;;;;;5051068;28;20193;-64
2023/03/31 11:35:13;;;;;;;3.65;1.42;;;17.20;59.30;;;;;;5051336;28;20320;-63
2023/03/31 11:37:52;;;;;;;4.13;1.60;;;17.20;59.30;;;;;;5052271;28;20712;-62
2023/03/31 11:40:35;;;;;;;3.60;1.48;;;17.20;59.30;;;;;;5052253;28;20179;-63
2023/03/31 11:43:08;;;;;;;6.43;1.70;;;17.20;59.30;;;;;;5051169;28;20173;-64
2023/03/31 11:45:54;;;;;;;3.75;1.40;;;17.20;59.30;;;;;;5051067;28;20201;-62
2023/03/31 11:48:32;;;;;;;5.88;1.83;;;17.20;59.30;;;;;;5050439;28;20170;-63
2023/03/31 11:50:59;;;;;;;6.43;2.08;;;17.30;59.40;;;;;;5050905;28;20201;-63
2023/03/31 11:53:28;;;;;;;5.25;1.75;;;17.30;59.20;;;;;;5050650;28;20634;-62
2023/03/31 11:55:54;;;;;;;4.88;1.80;;;17.30;59.20;;;;;;5049825;28;20195;-63
2023/03/31 11:58:34;;;;;;;4.10;1.27;;;17.30;59.10;;;;;;5050704;28;20628;-63
2023/03/31 12:01:23;;;;;;;4.25;1.70;;;17.30;59.00;;;;;;5051696;28;20257;-63
2023/03/31 12:04:08;;;;;;;4.38;1.52;;;17.30;59.00;;;;;;5049703;28;20278;-63
2023/03/31 12:06:38;;;;;;;3.30;1.60;;;17.30;59.00;;;;;;5050893;28;20258;-62
2023/03/31 12:09:04;;;;;;;3.95;1.92;;;17.20;59.00;;;;;;5050406;28;20167;-62
2023/03/31 12:11:38;;;;;;;3.78;1.35;;;17.20;59.10;;;;;;5051102;28;20175;-62
2023/03/31 12:14:33;;;;;;;3.50;1.70;;;17.20;59.10;;;;;;5050489;28;20571;-62
2023/03/31 12:17:28;;;;;;;4.63;1.75;;;17.20;59.20;;;;;;5050467;28;20175;-62
2023/03/31 12:19:58;;;;;;;3.70;1.30;;;17.20;59.20;;;;;;5050143;28;20218;-62
2023/03/31 12:22:43;;;;;;;4.32;1.65;;;17.20;59.20;;;;;;5050422;28;20237;-63
2023/03/31 12:25:15;;;;;;;3.83;1.60;;;17.20;59.10;;;;;;5050238;28;20576;-62
2023/03/31 12:27:41;;;;;;;4.28;1.70;;;17.20;59.00;;;;;;5050740;28;20174;-63
2023/03/31 12:30:24;;;;;;;2.38;1.40;;;17.20;59.00;;;;;;5050568;28;20171;-63
2023/03/31 12:32:59;;;;;;;4.35;1.63;;;17.20;59.00;;;;;;5051682;28;20217;-64
2023/03/31 12:35:28;;;;;;;5.38;1.70;;;17.20;59.00;;;;;;5050577;28;20743;-63
2023/03/31 12:38:25;;;;;;;3.05;1.27;;;17.20;59.00;;;;;;5049413;28;20211;-63
2023/03/31 12:41:13;;;;;;;4.63;1.92;;;17.10;59.60;;;;;;5051448;28;20642;-63
2023/03/31 12:44:13;;;;;;;3.67;1.52;;;17.10;59.00;;;;;;5051765;28;20262;-63
2023/03/31 12:47:08;;;;;;;3.88;1.60;;;17.10;59.10;;;;;;5049983;28;20213;-64
2023/03/31 12:49:46;;;;;;;2.53;1.50;;;17.10;59.10;;;;;;5050551;28;20183;-63
2023/03/31 12:52:26;;;;;;;4.07;1.40;;;17.00;59.10;;;;;;5049798;28;20232;-63
2023/03/31 12:55:23;;;;;;;5.90;1.67;;;17.00;59.10;;;;;;5049800;28;20258;-64
2023/03/31 12:57:49;;;;;;;3.70;1.70;;;17.00;59.20;;;;;;5050438;28;20190;-63
2023/03/31 13:00:19;;;;;;;3.20;1.70;;;17.00;59.20;;;;;;5054689;28;20183;-63
2023/03/31 13:02:45;;;;;;;4.10;1.65;;;17.00;59.30;;;;;;5053245;28;20254;-63
2023/03/31 13:05:36;;;;;;;2.85;1.05;;;17.00;59.10;;;;;;5055207;28;20273;-64
2023/03/31 13:08:05;;;;;;;5.53;2.00;;;17.00;59.10;;;;;;5054982;28;20549;-62
2023/03/31 13:10:31;;;;;;;4.82;1.70;;;17.00;59.10;;;;;;5054167;28;20171;-62